createdAt,value
2019-04-11T00:01:34.207Z,7.10
2019-04-11T00:03:54.515Z,7.00
2019-04-11T00:06:24.123Z,7.00
2019-04-11T00:08:54.645Z,7.10
2019-04-11T00:11:24.015Z,7.10
2019-04-11T00:13:55.635Z,7.10
2019-04-11T00:16:25.569Z,7.00
2019-04-11T00:18:56.839Z,6.90
2019-04-11T00:21:26.361Z,6.80
2019-04-11T00:23:56.602Z,6.90
2019-04-11T00:26:26.415Z,6.90
2019-04-11T00:28:56.806Z,6.90
2019-04-11T00:31:25.877Z,6.90
2019-04-11T00:33:56.261Z,6.80
2019-04-11T00:36:26.007Z,6.80
2019-04-11T00:38:55.226Z,6.80
2019-04-11T00:41:25.740Z,6.80
2019-04-11T00:43:56.648Z,6.70
2019-04-11T00:46:26.599Z,6.60
2019-04-11T00:48:56.138Z,6.60
2019-04-11T00:51:26.157Z,6.70
2019-04-11T00:53:55.240Z,6.60
2019-04-11T00:56:24.763Z,6.60
2019-04-11T00:58:54.153Z,6.60
2019-04-11T01:01:24.028Z,6.60
2019-04-11T01:03:53.719Z,6.60
2019-04-11T01:06:23.495Z,6.60
2019-04-11T01:08:53.718Z,6.60
2019-04-11T01:11:23.772Z,6.60
2019-04-11T01:13:55.367Z,6.60
2019-04-11T01:16:46.385Z,6.60
2019-04-11T01:19:16.358Z,6.50
2019-04-11T01:21:46.222Z,6.50
2019-04-11T01:24:15.641Z,6.40
2019-04-11T01:26:45.530Z,6.40
2019-04-11T01:29:15.487Z,6.40
2019-04-11T01:31:46.229Z,6.40
2019-04-11T01:34:16.174Z,6.30
2019-04-11T01:36:46.963Z,6.30
2019-04-11T01:39:35.047Z,6.30
2019-04-11T01:42:04.924Z,6.30
2019-04-11T01:44:34.680Z,6.30
2019-04-11T01:47:06.673Z,6.30
2019-04-11T01:49:36.519Z,6.30
2019-04-11T01:52:06.531Z,6.20
2019-04-11T01:54:36.060Z,6.20
2019-04-11T01:57:05.847Z,6.20
2019-04-11T01:59:35.447Z,6.20
2019-04-11T02:02:13.587Z,6.10
2019-04-11T02:04:57.040Z,6.20
2019-04-11T02:07:26.829Z,6.00
2019-04-11T02:09:56.793Z,6.00
2019-04-11T02:12:26.910Z,5.90
2019-04-11T02:14:57.622Z,5.90
2019-04-11T02:17:27.244Z,5.90
2019-04-11T02:19:57.220Z,5.80
2019-04-11T02:22:48.844Z,5.80
2019-04-11T02:25:38.718Z,5.80
2019-04-11T02:28:09.212Z,5.80
2019-04-11T02:30:44.150Z,5.80
2019-04-11T02:33:14.095Z,5.80
2019-04-11T02:35:47.103Z,5.80
2019-04-11T02:38:16.623Z,5.80
2019-04-11T02:40:47.966Z,5.80
2019-04-11T02:43:17.612Z,5.60
2019-04-11T02:46:00.062Z,5.50
2019-04-11T02:48:20.432Z,5.50
2019-04-11T02:50:50.796Z,5.40
2019-04-11T02:53:21.247Z,5.40
2019-04-11T02:55:52.044Z,5.30
2019-04-11T02:58:23.108Z,5.40
2019-04-11T03:00:53.780Z,5.40
2019-04-11T03:03:25.313Z,5.50
2019-04-11T03:05:55.439Z,5.50
2019-04-11T03:08:26.799Z,5.30
2019-04-11T03:10:57.663Z,5.30
2019-04-11T03:13:27.265Z,5.40
2019-04-11T03:16:11.058Z,5.30
2019-04-11T03:18:49.430Z,5.30
2019-04-11T03:21:06.507Z,5.30
2019-04-11T03:23:31.204Z,5.30
2019-04-11T03:26:03.034Z,5.30
2019-04-11T03:28:35.334Z,5.30
2019-04-11T03:31:47.357Z,5.30
2019-04-11T03:34:24.437Z,5.30
2019-04-11T03:37:01.072Z,5.30
2019-04-11T03:39:00.395Z,5.20
2019-04-11T03:41:29.696Z,5.20
2019-04-11T03:43:50.959Z,5.30
2019-04-11T03:46:30.209Z,5.30
2019-04-11T03:48:55.769Z,5.20
2019-04-11T03:51:17.979Z,5.30
2019-04-11T03:53:47.209Z,5.20
2019-04-11T03:56:19.559Z,5.10
2019-04-11T03:58:48.245Z,5.10
2019-04-11T04:01:21.229Z,5.10
2019-04-11T04:03:51.797Z,5.10
2019-04-11T04:06:23.331Z,5.00
2019-04-11T04:08:55.301Z,5.10
2019-04-11T04:11:27.675Z,5.00
2019-04-11T04:14:19.864Z,5.00
2019-04-11T04:17:03.461Z,5.00
2019-04-11T04:19:47.716Z,5.00
2019-04-11T04:22:42.099Z,4.80
2019-04-11T04:25:14.192Z,4.80
2019-04-11T04:27:45.107Z,4.80
2019-04-11T04:30:15.927Z,4.80
2019-04-11T04:32:49.367Z,4.80
2019-04-11T04:35:21.370Z,4.80
2019-04-11T04:37:51.713Z,4.80
2019-04-11T04:40:35.804Z,4.70
2019-04-11T04:42:55.939Z,4.70
2019-04-11T04:45:24.259Z,4.70
2019-04-11T04:47:58.839Z,4.70
2019-04-11T04:50:24.550Z,4.60
2019-04-11T04:52:55.923Z,4.70
2019-04-11T04:55:26.406Z,4.70
2019-04-11T04:57:58.219Z,4.60
2019-04-11T05:00:30.297Z,4.70
2019-04-11T05:03:01.879Z,4.80
2019-04-11T05:05:31.026Z,4.70
2019-04-11T05:08:01.239Z,4.70
2019-04-11T05:10:32.753Z,4.70
2019-04-11T05:13:03.602Z,4.70
2019-04-11T05:15:34.458Z,4.70
2019-04-11T05:18:04.191Z,4.70
2019-04-11T05:20:34.252Z,4.80
2019-04-11T05:23:04.360Z,4.80
2019-04-11T05:25:33.507Z,4.70
2019-04-11T05:28:04.375Z,4.60
2019-04-11T05:30:34.254Z,4.60
2019-04-11T05:33:04.040Z,4.60
2019-04-11T05:35:34.487Z,4.60
2019-04-11T05:38:04.912Z,4.50
2019-04-11T05:40:34.888Z,4.50
2019-04-11T05:43:04.837Z,4.50
2019-04-11T05:45:36.020Z,4.60
2019-04-11T05:48:09.330Z,4.50
2019-04-11T05:50:43.302Z,4.60
2019-04-11T05:53:11.070Z,4.60
2019-04-11T05:55:45.280Z,4.70
2019-04-11T05:58:14.440Z,4.70
2019-04-11T06:01:03.478Z,4.60
2019-04-11T06:03:32.601Z,4.50
2019-04-11T06:06:18.511Z,4.60
2019-04-11T06:08:48.252Z,4.60
2019-04-11T06:11:24.342Z,4.40
2019-04-11T06:14:12.907Z,4.50
2019-04-11T06:16:49.483Z,4.40
2019-04-11T06:19:30.452Z,4.50
2019-04-11T06:22:10.793Z,4.50
2019-04-11T06:25:09.244Z,4.40
2019-04-11T06:27:49.986Z,4.50
2019-04-11T06:30:44.558Z,4.50
2019-04-11T06:33:18.521Z,4.40
2019-04-11T06:36:23.287Z,4.30
2019-04-11T06:39:12.225Z,4.30
2019-04-11T06:42:04.345Z,4.30
2019-04-11T06:44:54.274Z,4.40
2019-04-11T06:48:01.034Z,4.50
2019-04-11T06:51:01.829Z,4.60
2019-04-11T06:53:35.014Z,4.50
2019-04-11T06:56:16.850Z,4.50
2019-04-11T06:58:52.016Z,4.30
2019-04-11T07:01:23.760Z,4.40
2019-04-11T07:04:05.059Z,4.40
2019-04-11T07:06:37.675Z,4.50
2019-04-11T07:09:25.404Z,4.40
2019-04-11T07:11:59.270Z,4.40
2019-04-11T07:14:50.707Z,4.40
2019-04-11T07:17:57.464Z,4.40
2019-04-11T07:20:45.835Z,4.40
2019-04-11T07:23:33.040Z,4.50
2019-04-11T07:26:10.696Z,4.50
2019-04-11T07:29:04.979Z,4.50
2019-04-11T07:32:04.866Z,4.60
2019-04-11T07:34:56.544Z,4.50
2019-04-11T07:37:30.200Z,4.50
2019-04-11T07:40:24.414Z,4.50
2019-04-11T07:43:19.434Z,4.50
2019-04-11T07:46:14.959Z,4.50
2019-04-11T07:48:44.713Z,4.50
2019-04-11T07:51:34.361Z,4.50
2019-04-11T07:54:15.808Z,4.50
2019-04-11T07:57:08.394Z,4.40
2019-04-11T08:00:06.456Z,4.50
2019-04-11T08:03:04.094Z,4.40
2019-04-11T08:05:44.914Z,4.50
2019-04-11T08:08:32.978Z,4.50
2019-04-11T08:11:23.544Z,4.50
2019-04-11T08:14:04.140Z,4.50
2019-04-11T08:17:04.754Z,4.50
2019-04-11T08:19:51.446Z,4.60
2019-04-11T08:22:43.247Z,4.60
2019-04-11T08:25:33.384Z,4.60
2019-04-11T08:28:07.579Z,4.60
2019-04-11T08:30:55.284Z,4.50
2019-04-11T08:33:26.652Z,4.60
2019-04-11T08:36:15.784Z,4.50
2019-04-11T08:38:46.693Z,4.40
2019-04-11T08:41:44.365Z,4.50
2019-04-11T08:44:20.496Z,4.60
2019-04-11T08:46:55.786Z,4.70
2019-04-11T08:49:34.983Z,4.70
2019-04-11T08:52:09.980Z,4.80
2019-04-11T08:55:10.359Z,4.70
2019-04-11T08:57:42.627Z,4.80
2019-04-11T09:00:34.584Z,4.90
2019-04-11T09:03:29.464Z,4.90
2019-04-11T09:06:06.662Z,4.90
2019-04-11T09:09:01.280Z,5.00
2019-04-11T09:11:49.523Z,5.10
2019-04-11T09:14:37.949Z,5.20
2019-04-11T09:17:35.144Z,5.20
2019-04-11T09:20:27.540Z,5.30
2019-04-11T09:23:01.938Z,5.30
2019-04-11T09:26:03.548Z,5.30
2019-04-11T09:28:41.795Z,5.30
2019-04-11T09:31:31.631Z,5.40
2019-04-11T09:34:23.785Z,5.50
2019-04-11T09:37:00.967Z,5.50
2019-04-11T09:40:07.964Z,5.60
2019-04-11T09:43:11.595Z,5.70
2019-04-11T09:45:58.003Z,5.70
2019-04-11T09:48:53.743Z,5.70
2019-04-11T09:51:49.788Z,5.80
2019-04-11T09:54:28.179Z,5.80
2019-04-11T09:57:20.627Z,5.90
2019-04-11T10:00:28.741Z,5.90
2019-04-11T10:03:15.967Z,6.00
2019-04-11T10:05:58.687Z,6.00
2019-04-11T10:08:39.649Z,6.00
2019-04-11T10:11:28.265Z,6.00
2019-04-11T10:14:13.350Z,5.90
2019-04-11T10:17:00.395Z,6.00
2019-04-11T10:19:54.514Z,6.10
2019-04-11T10:22:48.991Z,6.10
2019-04-11T10:25:30.703Z,6.20
2019-04-11T10:28:29.522Z,6.20
2019-04-11T10:31:10.568Z,6.30
2019-04-11T10:34:13.209Z,6.40
2019-04-11T10:36:53.626Z,6.30
2019-04-11T10:39:41.954Z,6.30
2019-04-11T10:42:14.665Z,6.30
2019-04-11T10:45:10.079Z,6.40
2019-04-11T10:47:40.781Z,6.40
2019-04-11T10:50:17.649Z,6.40
2019-04-11T10:52:55.414Z,6.50
2019-04-11T10:55:35.763Z,6.40
2019-04-11T10:58:24.760Z,6.40
2019-04-11T11:01:07.627Z,6.60
2019-04-11T11:03:59.025Z,6.60
2019-04-11T11:06:29.611Z,6.60
2019-04-11T11:09:35.403Z,6.60
2019-04-11T11:12:41.461Z,6.60
2019-04-11T11:15:20.054Z,6.80
2019-04-11T11:20:55.069Z,6.90
2019-04-11T11:23:38.111Z,6.90
2019-04-11T11:26:09.170Z,7.00
2019-04-11T11:29:07.347Z,7.10
2019-04-11T11:31:38.460Z,7.10
2019-04-11T11:34:14.644Z,7.10
2019-04-11T11:37:11.156Z,7.20
2019-04-11T11:40:04.393Z,7.20
2019-04-11T11:43:01.276Z,7.30
2019-04-11T11:45:51.776Z,7.30
2019-04-11T11:48:39.673Z,7.40
2019-04-11T11:51:13.388Z,7.30
2019-04-11T11:54:05.165Z,7.30
2019-04-11T11:56:36.102Z,7.30
2019-04-11T11:59:29.772Z,7.40
2019-04-11T12:02:02.315Z,7.40
2019-04-11T12:04:49.224Z,7.50
2019-04-11T12:07:21.076Z,7.40
2019-04-11T12:10:09.077Z,7.50
2019-04-11T12:12:48.886Z,7.50
2019-04-11T12:15:49.300Z,7.50
2019-04-11T12:18:47.244Z,7.40
2019-04-11T12:21:34.898Z,7.50
2019-04-11T12:24:26.112Z,7.50
2019-04-11T12:27:27.234Z,7.30
2019-04-11T12:30:13.324Z,7.40
2019-04-11T12:32:55.120Z,7.40
2019-04-11T12:35:38.112Z,7.40
2019-04-11T12:38:16.774Z,7.40
2019-04-11T12:41:04.132Z,7.50
2019-04-11T12:43:53.182Z,7.60
2019-04-11T12:46:40.493Z,7.50
2019-04-11T12:49:24.132Z,7.60
2019-04-11T12:52:10.936Z,7.50
2019-04-11T12:54:41.541Z,7.50
2019-04-11T12:57:41.786Z,7.50
2019-04-11T13:00:44.958Z,7.60
2019-04-11T13:03:32.102Z,7.50
2019-04-11T13:06:05.673Z,7.60
2019-04-11T13:09:00.036Z,7.60
2019-04-11T13:11:29.139Z,7.70
2019-04-11T13:14:09.110Z,7.60
2019-04-11T13:16:39.311Z,7.60
2019-04-11T13:19:26.311Z,7.60
2019-04-11T13:21:58.877Z,7.50
2019-04-11T13:25:02.284Z,7.50
2019-04-11T13:27:35.677Z,7.60
2019-04-11T13:30:19.850Z,7.60
2019-04-11T13:32:55.054Z,7.60
2019-04-11T13:35:40.252Z,7.70
2019-04-11T13:38:37.324Z,7.70
2019-04-11T13:41:23.770Z,7.60
2019-04-11T13:43:56.010Z,7.60
2019-04-11T13:46:47.036Z,7.50
2019-04-11T13:49:35.332Z,7.50
2019-04-11T13:52:25.357Z,7.50
2019-04-11T13:55:01.296Z,7.50
2019-04-11T13:57:58.562Z,7.50
2019-04-11T14:00:42.137Z,7.60
2019-04-11T14:03:30.546Z,7.50
2019-04-11T14:06:03.119Z,7.50
2019-04-11T14:08:39.335Z,7.50
2019-04-11T14:11:11.402Z,7.40
2019-04-11T14:13:42.178Z,7.50
2019-04-11T14:16:19.875Z,7.50
2019-04-11T14:19:12.427Z,7.50
2019-04-11T14:21:43.714Z,7.60
2019-04-11T14:24:29.708Z,7.60
2019-04-11T14:26:59.534Z,7.60
2019-04-11T14:29:40.530Z,7.60
2019-04-11T14:32:25.929Z,7.60
2019-04-11T14:35:13.671Z,7.50
2019-04-11T14:37:46.687Z,7.50
2019-04-11T14:40:33.434Z,7.60
2019-04-11T14:43:21.552Z,7.60
2019-04-11T14:46:18.722Z,7.50
2019-04-11T14:48:56.485Z,7.50
2019-04-11T14:51:51.335Z,7.50
2019-04-11T14:54:24.025Z,7.50
2019-04-11T14:57:15.875Z,7.50
2019-04-11T14:59:47.496Z,7.50
2019-04-11T15:02:24.759Z,7.50
2019-04-11T15:05:18.962Z,7.40
2019-04-11T15:07:49.468Z,7.50
2019-04-11T15:10:34.065Z,7.50
2019-04-11T15:13:03.084Z,7.40
2019-04-11T15:16:00.491Z,7.50
2019-04-11T15:18:32.441Z,7.40
2019-04-11T15:21:10.759Z,7.40
2019-04-11T15:23:45.440Z,7.30
2019-04-11T15:26:33.420Z,7.40
2019-04-11T15:29:09.392Z,7.40
2019-04-11T15:32:00.673Z,7.40
2019-04-11T15:34:54.239Z,7.40
2019-04-11T15:37:41.311Z,7.30
2019-04-11T15:40:22.975Z,7.40
2019-04-11T15:43:11.562Z,7.30
2019-04-11T15:45:54.535Z,7.30
2019-04-11T15:48:41.384Z,7.30
2019-04-11T15:51:36.069Z,7.20
2019-04-11T15:54:27.091Z,7.30
2019-04-11T15:57:02.849Z,7.30
2019-04-11T15:59:57.207Z,7.20
2019-04-11T16:02:44.160Z,7.30
2019-04-11T16:05:37.787Z,7.30
2019-04-11T16:08:38.820Z,7.20
2019-04-11T16:11:25.278Z,7.20
2019-04-11T16:14:01.997Z,7.20
2019-04-11T16:16:48.690Z,7.20
2019-04-11T16:19:35.341Z,7.20
2019-04-11T16:22:24.683Z,7.20
2019-04-11T16:24:57.925Z,7.20
2019-04-11T16:27:44.678Z,7.10
2019-04-11T16:30:15.266Z,7.20
2019-04-11T16:32:49.142Z,7.20
2019-04-11T16:35:28.041Z,7.20
2019-04-11T16:38:00.354Z,7.20
2019-04-11T16:40:47.518Z,7.20
2019-04-11T16:43:16.601Z,7.20
2019-04-11T16:46:05.149Z,7.20
2019-04-11T16:48:34.675Z,7.10
2019-04-11T16:51:05.813Z,7.20
2019-04-11T16:53:35.269Z,7.20
2019-04-11T16:56:04.773Z,7.20
2019-04-11T16:58:34.603Z,7.20
2019-04-11T17:01:04.162Z,7.20
2019-04-11T17:03:33.612Z,7.10
2019-04-11T17:06:09.089Z,7.20
2019-04-11T17:08:43.468Z,7.20
2019-04-11T17:11:19.141Z,7.20
2019-04-11T17:13:48.618Z,7.10
2019-04-11T17:16:19.071Z,7.20
2019-04-11T17:18:48.197Z,7.20
2019-04-11T17:21:17.924Z,7.20
2019-04-11T17:23:47.831Z,7.20
2019-04-11T17:26:17.765Z,7.20
2019-04-11T17:28:47.673Z,7.20
2019-04-11T17:31:17.149Z,7.20
2019-04-11T17:33:47.069Z,7.20
2019-04-11T17:36:16.254Z,7.20
2019-04-11T17:38:45.567Z,7.20
2019-04-11T17:41:15.207Z,7.20
2019-04-11T17:43:46.739Z,7.10
2019-04-11T17:46:15.883Z,7.20
2019-04-11T17:48:45.097Z,7.20
2019-04-11T17:51:14.439Z,7.10
2019-04-11T17:53:44.263Z,7.10
2019-04-11T17:56:13.733Z,7.10
2019-04-11T17:58:42.848Z,7.10
2019-04-11T18:01:12.610Z,7.10
2019-04-11T18:03:42.694Z,7.10
2019-04-11T18:06:12.065Z,7.10
2019-04-11T18:08:41.612Z,7.10
2019-04-11T18:11:11.120Z,7.10
2019-04-11T18:13:41.070Z,7.10
2019-04-11T18:16:10.710Z,7.00
2019-04-11T18:18:40.632Z,7.00
2019-04-11T18:21:09.917Z,7.00
2019-04-11T18:23:39.068Z,7.00
2019-04-11T18:26:08.621Z,7.00
2019-04-11T18:28:38.609Z,7.00
2019-04-11T18:31:07.808Z,7.00
2019-04-11T18:33:37.443Z,7.00
2019-04-11T18:36:06.640Z,7.00
2019-04-11T18:38:36.205Z,7.00
2019-04-11T18:41:05.454Z,7.00
2019-04-11T18:43:34.582Z,7.00
2019-04-11T18:46:04.269Z,7.00
2019-04-11T18:48:33.739Z,7.00
2019-04-11T18:51:02.964Z,7.00
2019-04-11T18:53:32.177Z,6.90
2019-04-11T18:56:01.868Z,6.90
2019-04-11T18:58:33.778Z,6.90
2019-04-11T19:01:08.886Z,6.90
2019-04-11T19:03:36.605Z,6.90
2019-04-11T19:06:06.444Z,6.90
2019-04-11T19:08:36.208Z,6.80
2019-04-11T19:11:05.945Z,6.90
2019-04-11T19:13:35.196Z,6.80
2019-04-11T19:16:04.810Z,6.80
2019-04-11T19:18:34.258Z,6.70
2019-04-11T19:21:03.465Z,6.70
2019-04-11T19:23:33.530Z,6.70
2019-04-11T19:26:02.834Z,6.60
2019-04-11T19:28:32.056Z,6.70
2019-04-11T19:31:01.592Z,6.60
2019-04-11T19:33:34.079Z,6.70
2019-04-11T19:36:02.900Z,6.60
2019-04-11T19:38:34.089Z,6.70
2019-04-11T19:41:22.638Z,6.50
2019-04-11T19:43:52.168Z,6.40
2019-04-11T19:46:21.720Z,6.40
2019-04-11T19:48:55.441Z,6.50
2019-04-11T19:51:22.610Z,6.40
2019-04-11T19:53:52.048Z,6.40
2019-04-11T19:56:30.876Z,6.40
2019-04-11T19:59:00.926Z,6.40
2019-04-11T20:01:30.737Z,6.40
2019-04-11T20:03:59.922Z,6.40
2019-04-11T20:06:30.611Z,6.30
2019-04-11T20:09:00.568Z,6.30
2019-04-11T20:11:30.067Z,6.30
2019-04-11T20:14:00.013Z,6.30
2019-04-11T20:16:41.127Z,6.20
2019-04-11T20:19:02.453Z,6.20
2019-04-11T20:21:32.883Z,6.10
2019-04-11T20:24:02.323Z,6.10
2019-04-11T20:26:32.413Z,6.20
2019-04-11T20:29:01.580Z,6.00
2019-04-11T20:31:31.245Z,6.00
2019-04-11T20:34:01.691Z,6.00
2019-04-11T20:36:33.451Z,6.10
2019-04-11T20:39:04.185Z,6.00
2019-04-11T20:41:33.754Z,6.00
2019-04-11T20:44:03.095Z,5.90
2019-04-11T20:46:32.384Z,5.90
2019-04-11T20:49:01.576Z,5.90
2019-04-11T20:51:31.109Z,6.00
2019-04-11T20:54:00.333Z,5.90
2019-04-11T20:56:30.294Z,5.90
2019-04-11T20:58:59.604Z,5.90
2019-04-11T21:01:29.392Z,5.80
2019-04-11T21:04:00.319Z,5.90
2019-04-11T21:06:32.053Z,5.80
2019-04-11T21:09:03.156Z,5.70
2019-04-11T21:11:36.538Z,5.80
2019-04-11T21:14:03.883Z,5.70
2019-04-11T21:16:34.420Z,5.70
2019-04-11T21:19:04.026Z,5.70
2019-04-11T21:21:33.543Z,5.70
2019-04-11T21:24:02.886Z,5.70
2019-04-11T21:26:32.807Z,5.70
2019-04-11T21:29:01.870Z,5.70
2019-04-11T21:31:31.769Z,5.60
2019-04-11T21:34:02.239Z,5.60
2019-04-11T21:36:32.356Z,5.60
2019-04-11T21:39:03.814Z,5.70
2019-04-11T21:41:36.053Z,5.70
2019-04-11T21:44:06.107Z,5.60
2019-04-11T21:46:38.136Z,5.60
2019-04-11T21:49:08.710Z,5.60
2019-04-11T21:51:41.461Z,5.60
2019-04-11T21:54:09.400Z,5.50
2019-04-11T21:56:38.629Z,5.50
2019-04-11T21:59:08.230Z,5.50
2019-04-11T22:01:38.018Z,5.50
2019-04-11T22:04:07.549Z,5.50
2019-04-11T22:06:37.780Z,5.50
2019-04-11T22:09:07.796Z,5.50
2019-04-11T22:11:38.444Z,5.50
2019-04-11T22:14:11.162Z,5.50
2019-04-11T22:16:44.108Z,5.40
2019-04-11T22:19:14.024Z,5.40
2019-04-11T22:21:45.358Z,5.40
2019-04-11T22:24:14.701Z,5.50
2019-04-11T22:26:44.198Z,5.50
2019-04-11T22:29:13.981Z,5.50
2019-04-11T22:31:43.196Z,5.40
2019-04-11T22:34:23.044Z,5.40
2019-04-11T22:36:52.127Z,5.30
2019-04-11T22:39:21.572Z,5.40
2019-04-11T22:41:51.128Z,5.30
2019-04-11T22:44:21.474Z,5.20
2019-04-11T22:46:50.966Z,5.30
2019-04-11T22:49:20.486Z,5.30
2019-04-11T22:51:49.893Z,5.30
2019-04-11T22:54:19.899Z,5.30
2019-04-11T22:56:50.341Z,5.30
2019-04-11T22:59:19.430Z,5.30
2019-04-11T23:01:50.185Z,5.30
2019-04-11T23:04:19.679Z,5.30
2019-04-11T23:06:49.364Z,5.30
2019-04-11T23:09:19.784Z,5.30
2019-04-11T23:11:49.827Z,5.30
2019-04-11T23:14:18.905Z,5.20
2019-04-11T23:16:48.351Z,5.30
2019-04-11T23:19:17.795Z,5.30
2019-04-11T23:21:46.883Z,5.20
2019-04-11T23:24:16.092Z,5.20
2019-04-11T23:26:45.571Z,5.20
2019-04-11T23:29:16.181Z,5.20
2019-04-11T23:31:45.725Z,5.20
2019-04-11T23:34:15.611Z,5.30
2019-04-11T23:36:45.077Z,5.20
2019-04-11T23:39:14.348Z,5.20
2019-04-11T23:41:43.514Z,5.20
2019-04-11T23:44:12.634Z,5.10
2019-04-11T23:46:42.173Z,5.10
2019-04-11T23:49:11.636Z,5.10
2019-04-11T23:51:41.780Z,5.20
2019-04-11T23:54:10.863Z,5.20
2019-04-11T23:56:40.424Z,5.10
2019-04-11T23:59:10.304Z,5.10
